RJFR

Kitakyūshū Airport

Kitakyūshū, Japan
TAF RJFR 212308Z 2200/2306 30012KT 9999 FEW025 SCT040 BECMG 2210/2212 24008KT BECMG 2300/2303 28014KT
Issued Valid From Valid To
Jan-21 @ 23:08 UTC
(an hour ago)
Jan-22 @ 00:00 UTC
(12 minutes ago)
Jan-23 @ 06:00 UTC
(-1 days ago)
Jan-22 @ 00:00 to Jan-22 @ 10:00
TAF RJFR 212308Z 2200/2306 30012KT 9999 FEW025 SCT040
Wind Visibility Clouds
300° at 12 knots 10,000+ meters
  • Few at 2,500' AGL
  • Scattered at 4,000' AGL
Becoming Jan-22 @ 10:00 to Jan-23 @ 00:00
BECMG 2210/2212 24008KT
Wind Visibility Clouds
240° at 8 knots 10,000+ meters
  • Few at 2,500' AGL
  • Scattered at 4,000' AGL
Becoming Jan-23 @ 00:00 to Jan-23 @ 06:00
BECMG 2300/2303 28014KT
Wind Visibility Clouds
280° at 14 knots 10,000+ meters
  • Few at 2,500' AGL
  • Scattered at 4,000' AGL
TAF RJFR 212308Z 2200/2306 30012KT 9999 FEW025 SCT040 BECMG 2210/2212 24008KT BECMG 2300/2303 28014KT
Issued Jan-21 @ 23:08 UTC
(an hour ago)
Valid From Jan-22 @ 00:00 UTC
(12 minutes ago)
Valid To Jan-23 @ 06:00 UTC
(-1 days ago)
Jan-22 @ 00:00 - Jan-22 @ 10:00
Wind Visibility
300° at 12 knots 10,000+ meters
Clouds
  • Few at 2,500' AGL
  • Scattered at 4,000' AGL
Becoming Jan-22 @ 10:00 - Jan-23 @ 00:00
Wind Visibility
240° at 8 knots 10,000+ meters
Clouds
  • Few at 2,500' AGL
  • Scattered at 4,000' AGL
Becoming Jan-23 @ 00:00 - Jan-23 @ 06:00
Wind Visibility
280° at 14 knots 10,000+ meters
Clouds
  • Few at 2,500' AGL
  • Scattered at 4,000' AGL